Aérodrome :
LOGIN :

S'inscrire | Disclaimer

   EN    FR    IT 

 










Légende :    VFR   VFR Marginal   IFR   IFR Intensif   IFR Très Intensif
Visi : 
Plafond : 
>= 8 km
>= 3000ft
5 à 8 km
1000 à 3000 ft
1500m à 5 km
500 à 1000 ft
800 à 1500m
200 à 500 ft
< 800m
< 200 ft
Symboles :   Orages  Brouillard  Fortes neiges  Fortes précipitations  Vent > 20 kt
SIGMETs :   Divers  Orages  Givrage  Turbulence  Onde Orograph.  Cendres Volcan.






- Altitude de l'aérodrome : 177 ft
- Code IATA : AYT


LTAI - Antalya

DERNIER METAR :
  • 271150Z 15015KT 9999 -SHRA FEW015CB BKN025 15/12 Q1018 NOSIG RMK RWY18C 14013KT RWY36R 14015KT RWY18L 15012KT

METARs EXPIRÉS :
  • 271120Z 15014KT 9999 1600S -SHRA BR FEW015CB BKN025 15/12 Q1018 NOSIG
  • 271050Z 14015KT 9000 1200S R36C/P1500N R18C/P1500U R36R/P1500U R18L/P1500N -SHRA BR FEW015CB BKN025 14/12 Q1018 NOSIG
  • 271020Z 15011KT 130V200 9999 1000S R36C/P1500D R18C/1100N R36R/P1500N R18L/P1500N -SHRA BR SCT017 BKN030 14/13 Q1019 NOSIG
  • 270950Z 15010KT 8000 1000S R36C/P1500N R18C/1100U R36R/P1500U R18L/P1500N -SHRA BR SCT017 BKN030 14/13 Q1019 NOSIG
  • 270920Z 14013KT 6000 1000S R36C/P1500N R18C/1100N R36R/P1500N R18L/P1500N -SHRA BR SCT017 BKN030 14/12 Q1020 NOSIG

TAF TAF LTAI
Valide du 27 à 12h jusqu'au 28 à 12h UTC


271040Z 2712/2812 15018G30KT 9999 -SHRA FEW015CB BKN025
BECMG 2712/2716 -TSRA
PROB30
TEMPO 2716/2719 4000 TSRA
BECMG 2719/2721 NSW
BECMG 2803/2806 36008KT
BECMG 2809/2812 15012KT SCT030 BKN100



MET'MAP, la Météo Aéronautique d'un coup d'oeil ! - Copyright ORBIFLY Décembre 2007 - Disclaimer

ORBIFLY MET'MAP TEAM :

Programmation & Développement : Alexandra Zaïnal
Sur une idée originale de : Baudouin d'Aumeries
Assistance à la programmation : Marc-Olivier Méhu
Soutien technique & logistique : Manuel Goepfert

Contact : metmap@orbifly.com




SOURCES & CREDITS :

   NOAA